createdAt,value
2019-04-20T00:08:55.730Z,11.70
2019-04-20T00:18:58.357Z,11.40
2019-04-20T00:29:21.625Z,11.20
2019-04-20T00:39:12.841Z,11.20
2019-04-20T00:49:32.283Z,10.90
2019-04-20T00:59:35.358Z,10.80
2019-04-20T01:09:49.870Z,10.90
2019-04-20T01:19:55.513Z,10.70
2019-04-20T01:30:11.720Z,10.60
2019-04-20T01:40:10.913Z,10.60
2019-04-20T01:50:22.136Z,10.60
2019-04-20T02:00:44.859Z,10.70
2019-04-20T02:10:53.660Z,10.60
2019-04-20T02:21:15.095Z,10.40
2019-04-20T02:31:47.517Z,10.20
2019-04-20T02:41:44.864Z,10.10
2019-04-20T02:51:54.050Z,10.00
2019-04-20T03:01:45.438Z,9.90
2019-04-20T03:11:58.280Z,9.70
2019-04-20T03:22:04.106Z,9.50
2019-04-20T03:32:44.923Z,9.40
2019-04-20T03:42:01.039Z,9.30
2019-04-20T03:52:58.054Z,9.20
2019-04-20T04:03:12.481Z,9.30
2019-04-20T04:13:09.969Z,9.10
2019-04-20T04:23:35.589Z,8.90
2019-04-20T04:43:49.949Z,8.70
2019-04-20T04:53:47.939Z,8.60
2019-04-20T05:04:10.613Z,8.70
2019-04-20T05:13:59.502Z,8.80
2019-04-20T05:24:22.604Z,8.90
2019-04-20T05:34:43.648Z,9.00
2019-04-20T05:44:47.358Z,9.20
2019-04-20T06:04:59.672Z,9.60
2019-04-20T06:15:14.475Z,10.20
2019-04-20T06:25:47.365Z,10.50
2019-04-20T06:36:00.974Z,10.80
2019-04-20T06:46:01.440Z,11.20
2019-04-20T06:56:09.941Z,11.40
2019-04-20T07:06:29.333Z,11.80
2019-04-20T07:16:28.290Z,12.10
2019-04-20T07:26:37.336Z,12.40
2019-04-20T07:36:37.741Z,12.80
2019-04-20T07:56:53.797Z,13.30
2019-04-20T08:06:47.030Z,13.90
2019-04-20T08:17:21.332Z,14.20
2019-04-20T08:27:05.782Z,14.40
2019-04-20T08:37:29.594Z,14.80
2019-04-20T08:57:22.402Z,16.10
2019-04-20T09:07:30.596Z,16.30
2019-04-20T09:17:46.600Z,16.60
2019-04-20T09:28:20.081Z,17.30
2019-04-20T09:38:30.623Z,17.70
2019-04-20T09:48:33.461Z,18.20
2019-04-20T09:58:53.389Z,18.50
2019-04-20T10:08:44.792Z,19.20
2019-04-20T10:18:48.818Z,19.80
2019-04-20T10:28:51.874Z,20.40
2019-04-20T10:38:58.240Z,21.20
2019-04-20T10:49:04.777Z,22.60
2019-04-20T10:59:11.874Z,24.60
2019-04-20T11:09:18.467Z,26.60
2019-04-20T11:19:25.194Z,28.00
2019-04-20T11:29:31.912Z,29.20
2019-04-20T11:39:39.005Z,30.30
2019-04-20T11:49:45.734Z,31.20
2019-04-20T11:59:52.908Z,31.50
2019-04-20T12:10:04.763Z,31.80
2019-04-20T12:20:05.956Z,32.00
2019-04-20T12:30:12.279Z,32.00
2019-04-20T12:40:19.798Z,32.50
2019-04-20T12:50:25.667Z,32.90
2019-04-20T13:00:43.744Z,33.30
2019-04-20T13:11:08.681Z,33.70
2019-04-20T13:21:14.399Z,35.10
2019-04-20T13:31:20.004Z,34.40
2019-04-20T13:41:25.574Z,34.00
2019-04-20T13:51:31.024Z,34.40
2019-04-20T14:01:42.068Z,34.20
2019-04-20T14:11:47.709Z,34.50
2019-04-20T14:21:54.150Z,34.90
2019-04-20T14:32:01.777Z,33.80
2019-04-20T14:42:06.855Z,34.70
2019-04-20T14:52:13.339Z,34.00
2019-04-20T15:02:21.626Z,33.20
2019-04-20T15:12:38.762Z,32.60
2019-04-20T15:22:43.704Z,33.50
2019-04-20T15:32:49.326Z,36.50
2019-04-20T15:43:01.004Z,38.10
2019-04-20T15:53:02.624Z,36.20
2019-04-20T16:03:17.089Z,33.50
2019-04-20T16:13:29.811Z,31.40
2019-04-20T16:23:32.700Z,30.00
2019-04-20T16:33:38.827Z,28.90
2019-04-20T16:43:46.298Z,27.80
2019-04-20T16:53:51.919Z,27.20
2019-04-20T17:04:06.182Z,26.80
2019-04-20T17:14:04.758Z,26.50
2019-04-20T17:24:11.168Z,26.10
2019-04-20T17:34:36.475Z,25.50
2019-04-20T17:44:41.372Z,25.10
2019-04-20T17:54:39.769Z,24.80
2019-04-20T18:05:28.368Z,24.50
2019-04-20T18:15:31.437Z,24.10
2019-04-20T18:25:53.369Z,23.60
2019-04-20T18:35:36.167Z,23.20
2019-04-20T18:46:12.417Z,22.70
2019-04-20T18:56:06.478Z,22.10
2019-04-20T19:06:14.100Z,21.70
2019-04-20T19:16:50.575Z,21.10
2019-04-20T19:26:48.135Z,20.60
2019-04-20T19:37:04.123Z,20.00
2019-04-20T19:47:15.607Z,19.40
2019-04-20T19:57:24.095Z,18.80
2019-04-20T20:07:21.990Z,18.60
2019-04-20T20:17:41.215Z,18.20
2019-04-20T20:27:32.578Z,17.80
2019-04-20T20:37:44.789Z,17.50
2019-04-20T20:48:00.473Z,17.30
2019-04-20T20:57:57.438Z,17.10
2019-04-20T21:07:55.372Z,16.80
2019-04-20T21:18:20.591Z,16.50
2019-04-20T21:28:08.971Z,16.20
2019-04-20T21:38:16.587Z,15.80
2019-04-20T21:48:40.737Z,15.50
2019-04-20T21:58:35.461Z,15.20
2019-04-20T22:08:40.464Z,14.70
2019-04-20T22:18:54.426Z,14.40
2019-04-20T22:28:52.043Z,14.50
2019-04-20T22:39:16.708Z,14.10
2019-04-20T22:49:43.081Z,13.80
2019-04-20T22:59:41.767Z,13.60
2019-04-20T23:09:44.299Z,13.50
2019-04-20T23:19:49.505Z,13.20
2019-04-20T23:29:53.134Z,13.10
2019-04-20T23:39:58.621Z,12.90
2019-04-20T23:50:20.937Z,12.60
